createdAt,value
2022-12-23T00:01:45.399Z,6.51
2022-12-23T00:04:13.903Z,6.48
2022-12-23T00:06:42.358Z,6.46
2022-12-23T00:09:10.931Z,6.43
2022-12-23T00:11:59.694Z,6.42
2022-12-23T00:15:01.702Z,6.38
2022-12-23T00:17:32.573Z,6.38
2022-12-23T00:20:01.407Z,6.39
2022-12-23T00:22:43.701Z,6.39
2022-12-23T00:25:13.598Z,6.37
2022-12-23T00:27:42.512Z,6.36
2022-12-23T00:30:12.657Z,6.35
2022-12-23T00:32:41.021Z,6.35
2022-12-23T00:35:09.950Z,6.36
2022-12-23T00:37:38.367Z,6.39
2022-12-23T00:40:25.335Z,6.39
2022-12-23T00:42:56.988Z,6.37
2022-12-23T00:45:26.882Z,6.38
2022-12-23T00:48:13.020Z,6.36
2022-12-23T00:50:41.367Z,6.34
2022-12-23T00:53:09.755Z,6.35
2022-12-23T00:55:38.278Z,6.35
2022-12-23T00:58:06.912Z,6.37
2022-12-23T01:00:54.134Z,6.39
2022-12-23T01:03:40.253Z,6.40
2022-12-23T01:06:08.783Z,6.38
2022-12-23T01:08:38.078Z,6.33
2022-12-23T01:11:07.985Z,6.31
2022-12-23T01:13:37.299Z,6.30
2022-12-23T01:16:15.134Z,6.33
2022-12-23T01:18:46.157Z,6.31
2022-12-23T01:21:14.700Z,6.35
2022-12-23T01:23:43.270Z,6.37
2022-12-23T01:26:12.964Z,6.39
2022-12-23T01:28:41.331Z,6.40
2022-12-23T01:31:12.179Z,6.41
2022-12-23T01:33:40.580Z,6.41
2022-12-23T01:36:09.754Z,6.42
2022-12-23T01:38:38.185Z,6.42
2022-12-23T01:41:06.790Z,6.40
2022-12-23T01:43:46.305Z,6.38
2022-12-23T01:46:16.137Z,6.39
2022-12-23T01:48:50.219Z,6.36
2022-12-23T01:51:24.737Z,6.33
2022-12-23T01:53:58.731Z,6.33
2022-12-23T01:56:31.184Z,6.34
2022-12-23T01:59:03.869Z,6.35
2022-12-23T02:01:51.546Z,6.36
2022-12-23T02:04:24.087Z,6.40
2022-12-23T02:07:10.490Z,6.42
2022-12-23T02:09:41.263Z,6.41
2022-12-23T02:12:34.129Z,6.41
2022-12-23T02:15:44.168Z,6.41
2022-12-23T02:18:34.838Z,6.42
2022-12-23T02:21:14.643Z,6.44
2022-12-23T02:24:13.867Z,6.45
2022-12-23T02:27:10.250Z,6.46
2022-12-23T02:30:26.021Z,6.46
2022-12-23T02:33:34.669Z,6.47
2022-12-23T02:36:24.700Z,6.47
2022-12-23T02:39:02.617Z,6.47
2022-12-23T02:41:39.663Z,6.47
2022-12-23T02:44:14.543Z,6.49
2022-12-23T02:46:47.679Z,6.53
2022-12-23T02:49:24.217Z,6.58
2022-12-23T02:51:57.501Z,6.63
2022-12-23T02:54:31.427Z,6.70
2022-12-23T02:57:03.789Z,6.76
2022-12-23T02:59:37.869Z,6.78
2022-12-23T03:02:06.410Z,6.82
2022-12-23T03:04:38.231Z,6.86
2022-12-23T03:07:08.072Z,6.88
2022-12-23T03:09:46.384Z,6.92
2022-12-23T03:12:28.474Z,6.98
2022-12-23T03:15:11.708Z,7.01
2022-12-23T03:17:55.872Z,7.06
2022-12-23T03:20:33.573Z,7.11
2022-12-23T03:23:09.545Z,7.14
2022-12-23T03:25:44.846Z,7.16
2022-12-23T03:28:18.526Z,7.19
2022-12-23T03:30:52.527Z,7.20
2022-12-23T03:33:25.222Z,7.25
2022-12-23T03:35:59.258Z,7.31
2022-12-23T03:38:41.386Z,7.33
2022-12-23T03:41:15.747Z,7.34
2022-12-23T03:43:51.074Z,7.35
2022-12-23T03:46:25.680Z,7.37
2022-12-23T03:48:57.976Z,7.37
2022-12-23T03:51:33.960Z,7.38
2022-12-23T03:54:06.411Z,7.39
2022-12-23T03:56:39.793Z,7.39
2022-12-23T03:59:13.959Z,7.40
2022-12-23T04:01:49.205Z,7.42
2022-12-23T04:04:25.855Z,7.43
2022-12-23T04:07:03.517Z,7.44
2022-12-23T04:09:31.887Z,7.48
2022-12-23T04:12:00.469Z,7.52
2022-12-23T04:14:28.848Z,7.54
2022-12-23T04:16:59.328Z,7.56
2022-12-23T04:19:27.630Z,7.58
2022-12-23T04:21:58.155Z,7.58
2022-12-23T04:24:26.519Z,7.56
2022-12-23T04:26:54.888Z,7.56
2022-12-23T04:29:23.201Z,7.57
2022-12-23T04:31:51.647Z,7.57
2022-12-23T04:34:20.054Z,7.59
2022-12-23T04:36:48.455Z,7.58
2022-12-23T04:39:18.172Z,7.61
2022-12-23T04:41:46.533Z,7.64
2022-12-23T04:44:14.900Z,7.68
2022-12-23T04:46:43.544Z,7.72
2022-12-23T04:49:11.927Z,7.76
2022-12-23T04:51:40.244Z,7.80
2022-12-23T04:54:08.582Z,7.80
2022-12-23T04:56:38.335Z,7.80
2022-12-23T04:59:06.718Z,7.79
2022-12-23T05:01:35.162Z,7.79
2022-12-23T05:04:03.644Z,7.80
2022-12-23T05:06:32.076Z,7.79
2022-12-23T05:09:00.449Z,7.78
2022-12-23T05:11:29.312Z,7.77
2022-12-23T05:13:59.160Z,7.75
2022-12-23T05:16:27.800Z,7.74
2022-12-23T05:18:56.184Z,7.74
2022-12-23T05:21:24.566Z,7.76
2022-12-23T05:23:52.954Z,7.79
2022-12-23T05:26:21.653Z,7.79
2022-12-23T05:28:50.002Z,7.78
2022-12-23T05:31:20.261Z,7.78
2022-12-23T05:33:48.712Z,7.78
2022-12-23T05:36:17.148Z,7.79
2022-12-23T05:38:45.575Z,7.79
2022-12-23T05:41:14.183Z,7.80
2022-12-23T05:43:42.541Z,7.79
2022-12-23T05:46:10.971Z,7.78
2022-12-23T05:48:40.762Z,7.78
2022-12-23T05:51:09.149Z,7.77
2022-12-23T05:53:37.485Z,7.77
2022-12-23T05:56:06.638Z,7.77
2022-12-23T05:58:34.979Z,7.78
2022-12-23T06:01:03.840Z,7.78
2022-12-23T06:03:32.513Z,7.79
2022-12-23T06:06:02.458Z,7.80
2022-12-23T06:08:30.764Z,7.83
2022-12-23T06:10:59.889Z,7.86
2022-12-23T06:13:31.754Z,7.88
2022-12-23T06:16:00.185Z,7.89
2022-12-23T06:18:28.573Z,7.91
2022-12-23T06:20:56.934Z,7.94
2022-12-23T06:23:26.600Z,8.01
2022-12-23T06:26:00.285Z,8.07
2022-12-23T06:28:29.340Z,8.11
2022-12-23T06:30:58.577Z,8.11
2022-12-23T06:33:27.021Z,8.12
2022-12-23T06:35:55.473Z,8.12
2022-12-23T06:38:23.849Z,8.11
2022-12-23T06:40:53.524Z,8.11
2022-12-23T06:43:21.822Z,8.10
2022-12-23T06:45:50.412Z,8.11
2022-12-23T06:48:20.180Z,8.13
2022-12-23T06:50:48.558Z,8.13
2022-12-23T06:53:16.975Z,8.13
2022-12-23T06:55:45.333Z,8.11
2022-12-23T06:58:15.016Z,8.09
2022-12-23T07:00:43.346Z,8.06
2022-12-23T07:03:11.809Z,8.05
2022-12-23T07:05:40.198Z,8.05
2022-12-23T07:08:08.547Z,8.05
2022-12-23T07:10:36.892Z,8.08
2022-12-23T07:13:05.233Z,8.08
2022-12-23T07:15:34.929Z,8.07
2022-12-23T07:18:03.301Z,8.09
2022-12-23T07:20:31.684Z,8.19
2022-12-23T07:23:00.022Z,8.24
2022-12-23T07:25:28.633Z,8.26
2022-12-23T07:27:57.029Z,8.27
2022-12-23T07:30:26.104Z,8.29
2022-12-23T07:32:55.821Z,8.31
2022-12-23T07:35:24.325Z,8.34
2022-12-23T07:37:53.978Z,8.33
2022-12-23T07:40:22.691Z,8.31
2022-12-23T07:42:51.791Z,8.31
2022-12-23T07:45:20.089Z,8.29
2022-12-23T07:47:48.667Z,8.30
2022-12-23T07:50:18.495Z,8.29
2022-12-23T07:52:46.834Z,8.29
2022-12-23T07:55:15.323Z,8.25
2022-12-23T07:57:43.786Z,8.22
2022-12-23T08:00:14.203Z,8.20
2022-12-23T08:02:43.293Z,8.15
2022-12-23T08:05:12.602Z,8.11
2022-12-23T08:07:42.361Z,8.07
2022-12-23T08:10:11.441Z,8.02
2022-12-23T08:12:39.813Z,7.97
2022-12-23T08:15:09.642Z,7.92
2022-12-23T08:17:38.040Z,7.91
2022-12-23T08:20:07.734Z,7.89
2022-12-23T08:22:36.327Z,7.87
2022-12-23T08:25:06.839Z,7.84
2022-12-23T08:27:35.802Z,7.81
2022-12-23T08:30:04.379Z,7.79
2022-12-23T08:32:32.702Z,7.77
2022-12-23T08:35:01.099Z,7.77
2022-12-23T08:37:29.459Z,7.75
2022-12-23T08:39:57.808Z,7.75
2022-12-23T08:42:27.504Z,7.76
2022-12-23T08:44:55.864Z,7.81
2022-12-23T08:47:24.226Z,7.86
2022-12-23T08:49:52.555Z,7.87
2022-12-23T08:52:20.955Z,7.89
2022-12-23T08:54:49.279Z,7.91
2022-12-23T08:57:17.597Z,7.94
2022-12-23T08:59:48.069Z,7.98
2022-12-23T09:02:16.643Z,8.01
2022-12-23T09:04:45.288Z,8.04
2022-12-23T09:07:13.934Z,8.08
2022-12-23T09:09:42.281Z,8.11
2022-12-23T09:12:10.573Z,8.16
2022-12-23T09:14:38.940Z,8.20
2022-12-23T09:17:08.642Z,8.25
2022-12-23T09:19:37.131Z,8.29
2022-12-23T09:22:05.534Z,8.35
2022-12-23T09:24:33.903Z,8.39
2022-12-23T09:27:03.155Z,8.42
2022-12-23T09:29:31.544Z,8.42
2022-12-23T09:31:59.891Z,8.41
2022-12-23T09:34:29.619Z,8.39
2022-12-23T09:36:57.981Z,8.37
2022-12-23T09:39:26.688Z,8.40
2022-12-23T09:42:06.304Z,8.39
2022-12-23T09:44:45.501Z,8.36
2022-12-23T09:47:18.410Z,8.34
2022-12-23T09:49:52.639Z,8.34
2022-12-23T09:52:26.417Z,8.37
2022-12-23T09:54:56.477Z,8.37
2022-12-23T09:57:35.253Z,8.37
2022-12-23T10:00:08.368Z,8.37
2022-12-23T10:02:51.784Z,8.39
2022-12-23T10:05:31.716Z,8.38
2022-12-23T10:08:04.866Z,8.39
2022-12-23T10:10:39.788Z,8.39
2022-12-23T10:13:17.517Z,8.39
2022-12-23T10:15:49.194Z,8.41
2022-12-23T10:18:24.443Z,8.43
2022-12-23T10:20:59.054Z,8.45
2022-12-23T10:23:32.535Z,8.48
2022-12-23T10:26:05.038Z,8.52
2022-12-23T10:28:33.361Z,8.53
2022-12-23T10:34:05.657Z,8.57
2022-12-23T10:36:45.019Z,8.62
2022-12-23T10:39:25.065Z,8.66
2022-12-23T10:42:06.345Z,8.67
2022-12-23T10:45:00.532Z,8.65
2022-12-23T10:47:41.222Z,8.58
2022-12-23T10:50:28.936Z,8.55
2022-12-23T10:53:01.944Z,8.53
2022-12-23T10:55:35.476Z,8.51
2022-12-23T10:58:08.598Z,8.50
2022-12-23T11:00:40.885Z,8.49
2022-12-23T11:03:17.964Z,8.49
2022-12-23T11:05:47.169Z,8.51
2022-12-23T11:08:18.489Z,8.48
2022-12-23T11:10:47.537Z,8.48
2022-12-23T11:13:25.903Z,8.48
2022-12-23T11:15:54.571Z,8.47
2022-12-23T11:18:22.937Z,8.47
2022-12-23T11:21:04.984Z,8.54
2022-12-23T11:23:37.101Z,8.60
2022-12-23T11:26:08.102Z,8.63
2022-12-23T11:28:39.734Z,8.71
2022-12-23T11:31:12.039Z,8.75
2022-12-23T11:33:47.078Z,8.77
2022-12-23T11:36:23.886Z,8.77
2022-12-23T11:39:01.299Z,8.80
2022-12-23T11:41:35.705Z,8.82
2022-12-23T11:44:07.581Z,8.82
2022-12-23T11:46:36.345Z,8.83
2022-12-23T11:49:08.028Z,8.79
2022-12-23T11:51:36.392Z,8.76
2022-12-23T11:54:06.631Z,8.73
2022-12-23T11:56:39.207Z,8.71
2022-12-23T11:59:10.218Z,8.70
2022-12-23T12:01:39.939Z,8.70
2022-12-23T12:04:10.341Z,8.74
2022-12-23T12:06:48.433Z,8.74
2022-12-23T12:09:23.905Z,8.75
2022-12-23T12:11:57.385Z,8.74
2022-12-23T12:14:33.389Z,8.76
2022-12-23T12:17:15.332Z,8.76
2022-12-23T12:19:55.140Z,8.76
2022-12-23T12:22:31.368Z,8.74
2022-12-23T12:25:07.667Z,8.75
2022-12-23T12:27:39.973Z,8.75
2022-12-23T12:30:17.103Z,8.74
2022-12-23T12:32:54.896Z,8.73
2022-12-23T12:35:30.190Z,8.73
2022-12-23T12:38:11.800Z,8.76
2022-12-23T12:40:43.565Z,8.80
2022-12-23T12:43:24.729Z,8.84
2022-12-23T12:45:59.926Z,8.89
2022-12-23T12:48:41.778Z,8.91
2022-12-23T12:51:17.985Z,8.94
2022-12-23T12:54:06.547Z,8.97
2022-12-23T12:56:44.794Z,9.02
2022-12-23T12:59:18.118Z,9.04
2022-12-23T13:02:17.275Z,9.07
2022-12-23T13:05:10.353Z,9.10
2022-12-23T13:07:48.229Z,9.17
2022-12-23T13:10:28.906Z,9.21
2022-12-23T13:13:03.767Z,9.25
2022-12-23T13:15:36.491Z,9.26
2022-12-23T13:18:20.688Z,9.29
2022-12-23T13:20:56.761Z,9.31
2022-12-23T13:23:43.625Z,9.31
2022-12-23T13:26:23.178Z,9.34
2022-12-23T13:29:05.558Z,9.35
2022-12-23T13:31:43.718Z,9.34
2022-12-23T13:34:24.680Z,9.33
2022-12-23T13:37:03.001Z,9.30
2022-12-23T13:39:43.474Z,9.26
2022-12-23T13:42:26.349Z,9.21
2022-12-23T13:44:57.936Z,9.16
2022-12-23T13:47:36.684Z,9.12
2022-12-23T13:50:13.409Z,9.07
2022-12-23T13:53:02.860Z,9.01
2022-12-23T13:55:48.271Z,8.97
2022-12-23T13:58:19.472Z,8.93
2022-12-23T14:00:58.392Z,8.90
2022-12-23T14:03:34.274Z,8.87
2022-12-23T14:06:20.995Z,8.83
2022-12-23T14:08:49.664Z,8.81
2022-12-23T14:11:23.343Z,8.80
2022-12-23T14:13:57.835Z,8.78
2022-12-23T14:16:46.613Z,8.76
2022-12-23T14:19:45.779Z,8.75
2022-12-23T14:22:43.044Z,8.73
2022-12-23T14:25:37.698Z,8.72
2022-12-23T14:28:21.209Z,8.73
2022-12-23T14:30:49.755Z,8.74
2022-12-23T14:33:26.521Z,8.74
2022-12-23T14:36:14.211Z,8.73
2022-12-23T14:38:43.053Z,8.71
2022-12-23T14:41:26.250Z,8.70
2022-12-23T14:43:59.576Z,8.68
2022-12-23T14:46:58.914Z,8.66
2022-12-23T14:49:41.441Z,8.66
2022-12-23T14:52:58.618Z,8.67
2022-12-23T14:55:47.230Z,8.66
2022-12-23T14:58:35.118Z,8.65
2022-12-23T15:01:06.037Z,8.61
2022-12-23T15:03:41.228Z,8.61
2022-12-23T15:06:17.473Z,8.61
2022-12-23T15:08:48.021Z,8.60
2022-12-23T15:11:24.019Z,8.60
2022-12-23T15:13:54.111Z,8.59
2022-12-23T15:16:31.748Z,8.60
2022-12-23T15:19:02.201Z,8.61
2022-12-23T15:21:36.170Z,8.59
2022-12-23T15:24:16.320Z,8.58
2022-12-23T15:27:03.573Z,8.57
2022-12-23T15:29:42.097Z,8.58
2022-12-23T15:32:11.749Z,8.57
2022-12-23T15:34:40.358Z,8.58
2022-12-23T15:37:16.381Z,8.56
2022-12-23T15:39:45.251Z,8.58
2022-12-23T15:42:24.420Z,8.61
2022-12-23T15:44:53.540Z,8.62
2022-12-23T15:47:29.005Z,8.66
2022-12-23T15:49:59.365Z,8.69
2022-12-23T15:52:30.656Z,8.71
2022-12-23T15:55:03.761Z,8.74
2022-12-23T15:57:32.505Z,8.77
2022-12-23T16:00:01.645Z,8.79
2022-12-23T16:05:29.703Z,8.85
2022-12-23T16:08:28.999Z,8.89
2022-12-23T16:11:07.225Z,8.92
2022-12-23T16:13:35.596Z,8.96
2022-12-23T16:16:20.931Z,8.98
2022-12-23T16:18:49.430Z,8.99
2022-12-23T16:21:18.060Z,9.00
2022-12-23T16:23:52.336Z,9.03
2022-12-23T16:26:21.752Z,9.05
2022-12-23T16:28:52.607Z,9.06
2022-12-23T16:31:22.439Z,9.09
2022-12-23T16:33:57.074Z,9.12
2022-12-23T16:36:35.846Z,9.14
2022-12-23T16:39:21.654Z,9.12
2022-12-23T16:41:51.120Z,9.14
2022-12-23T16:44:19.477Z,9.15
2022-12-23T16:46:50.388Z,9.15
2022-12-23T16:49:20.989Z,9.16
2022-12-23T16:51:50.334Z,9.16
2022-12-23T16:54:21.443Z,9.18
2022-12-23T16:56:50.881Z,9.19
2022-12-23T16:59:19.821Z,9.22
2022-12-23T17:01:50.092Z,9.23
2022-12-23T17:04:18.546Z,9.26
2022-12-23T17:06:47.477Z,9.29
2022-12-23T17:09:15.967Z,9.29
2022-12-23T17:11:48.755Z,9.30
2022-12-23T17:14:20.333Z,9.31
2022-12-23T17:16:49.818Z,9.33
2022-12-23T17:19:27.411Z,9.39
2022-12-23T17:22:00.902Z,9.43
2022-12-23T17:24:29.593Z,9.46
2022-12-23T17:26:59.684Z,9.50
2022-12-23T17:29:28.302Z,9.55
2022-12-23T17:31:56.691Z,9.57
2022-12-23T17:34:25.554Z,9.57
2022-12-23T17:36:54.122Z,9.59
2022-12-23T17:39:23.456Z,9.60
2022-12-23T17:41:52.089Z,9.62
2022-12-23T17:44:21.835Z,9.65
2022-12-23T17:46:50.272Z,9.68
2022-12-23T17:49:19.163Z,9.74
2022-12-23T17:51:47.683Z,9.78
2022-12-23T17:54:23.210Z,9.80
2022-12-23T17:56:52.012Z,9.79
2022-12-23T17:59:22.888Z,9.79
2022-12-23T18:01:51.657Z,9.81
2022-12-23T18:04:21.195Z,9.82
2022-12-23T18:06:49.568Z,9.82
2022-12-23T18:09:18.832Z,9.81
2022-12-23T18:11:48.057Z,9.80
2022-12-23T18:14:19.423Z,9.79
2022-12-23T18:16:49.189Z,9.80
2022-12-23T18:19:20.075Z,9.79
2022-12-23T18:21:49.145Z,9.80
2022-12-23T18:24:17.548Z,9.80
2022-12-23T18:26:46.283Z,9.82
2022-12-23T18:29:14.808Z,9.82
2022-12-23T18:31:51.575Z,9.81
2022-12-23T18:34:22.151Z,9.78
2022-12-23T18:36:52.055Z,9.79
2022-12-23T18:39:21.076Z,9.80
2022-12-23T18:41:49.456Z,9.80
2022-12-23T18:44:19.923Z,9.80
2022-12-23T18:46:48.924Z,9.80
2022-12-23T18:49:17.363Z,9.81
2022-12-23T18:51:47.135Z,9.84
2022-12-23T18:54:16.274Z,9.85
2022-12-23T18:56:45.051Z,9.85
2022-12-23T18:59:21.358Z,9.86
2022-12-23T19:01:56.265Z,9.88
2022-12-23T19:04:24.750Z,9.85
2022-12-23T19:06:55.657Z,9.84
2022-12-23T19:09:25.546Z,9.83
2022-12-23T19:11:54.882Z,9.82
2022-12-23T19:14:23.691Z,9.82
2022-12-23T19:16:52.819Z,9.81
2022-12-23T19:19:21.581Z,9.79
2022-12-23T19:21:49.909Z,9.80
2022-12-23T19:24:19.642Z,9.78
2022-12-23T19:26:48.120Z,9.79
2022-12-23T19:29:16.927Z,9.81
2022-12-23T19:31:45.312Z,9.82
2022-12-23T19:34:15.678Z,9.84
2022-12-23T19:36:44.736Z,9.85
2022-12-23T19:39:17.284Z,9.88
2022-12-23T19:41:47.178Z,9.90
2022-12-23T19:44:15.547Z,9.93
2022-12-23T19:46:44.049Z,9.96
2022-12-23T19:49:19.140Z,9.97
2022-12-23T19:51:48.562Z,10.02
2022-12-23T19:54:17.598Z,10.09
2022-12-23T19:56:50.280Z,10.14
2022-12-23T19:59:18.821Z,10.20
2022-12-23T20:01:48.537Z,10.33
2022-12-23T20:04:17.200Z,10.48
2022-12-23T20:06:45.629Z,10.64
2022-12-23T20:09:14.772Z,10.93
2022-12-23T20:11:45.381Z,11.14
2022-12-23T20:14:17.430Z,11.25
2022-12-23T20:16:45.873Z,11.29
2022-12-23T20:19:14.515Z,11.38
2022-12-23T20:21:42.836Z,11.44
2022-12-23T20:24:11.244Z,11.46
2022-12-23T20:26:39.965Z,11.47
2022-12-23T20:29:08.383Z,11.55
2022-12-23T20:31:39.455Z,11.61
2022-12-23T20:34:09.910Z,11.71
2022-12-23T20:36:38.619Z,11.75
2022-12-23T20:39:07.386Z,11.80
2022-12-23T20:41:35.773Z,11.79
2022-12-23T20:46:54.081Z,11.77
2022-12-23T20:49:22.561Z,11.75
2022-12-23T20:51:51.349Z,11.70
2022-12-23T20:54:19.730Z,11.63
2022-12-23T20:56:48.087Z,11.58
2022-12-23T20:59:16.445Z,11.53
2022-12-23T21:01:44.918Z,11.48
2022-12-23T21:04:16.397Z,11.43
2022-12-23T21:06:45.487Z,11.39
2022-12-23T21:09:15.792Z,11.35
2022-12-23T21:11:46.370Z,11.34
2022-12-23T21:14:15.924Z,11.31
2022-12-23T21:16:44.660Z,11.29
2022-12-23T21:19:18.584Z,11.24
2022-12-23T21:21:47.232Z,11.14
2022-12-23T21:24:16.623Z,11.02
2022-12-23T21:26:50.256Z,10.90
2022-12-23T21:29:22.386Z,10.78
2022-12-23T21:31:50.881Z,10.70
2022-12-23T21:34:20.674Z,10.62
2022-12-23T21:36:49.133Z,10.57
2022-12-23T21:39:17.942Z,10.56
2022-12-23T21:41:46.310Z,10.54
2022-12-23T21:44:15.608Z,10.54
2022-12-23T21:46:44.124Z,10.58
2022-12-23T21:49:12.955Z,10.70
2022-12-23T21:51:42.654Z,10.82
2022-12-23T21:54:12.270Z,10.89
2022-12-23T21:56:41.949Z,11.08
2022-12-23T21:59:13.305Z,11.21
2022-12-23T22:01:42.764Z,11.40
2022-12-23T22:04:11.387Z,11.54
2022-12-23T22:06:44.549Z,11.59
2022-12-23T22:09:15.735Z,11.70
2022-12-23T22:11:44.790Z,11.77
2022-12-23T22:14:15.244Z,11.91
2022-12-23T22:16:43.981Z,11.97
2022-12-23T22:19:13.163Z,12.09
2022-12-23T22:21:43.191Z,12.13
2022-12-23T22:24:11.763Z,12.15
2022-12-23T22:26:41.700Z,12.14
2022-12-23T22:29:11.836Z,12.12
2022-12-23T22:31:42.896Z,12.20
2022-12-23T22:34:14.908Z,12.17
2022-12-23T22:36:53.875Z,12.13
2022-12-23T22:39:22.731Z,12.13
2022-12-23T22:41:51.804Z,12.14
2022-12-23T22:44:21.121Z,12.13
2022-12-23T22:46:49.800Z,12.09
2022-12-23T22:49:18.342Z,12.05
2022-12-23T22:51:48.086Z,12.03
2022-12-23T22:54:16.419Z,12.04
2022-12-23T22:56:45.841Z,12.01
2022-12-23T22:59:20.444Z,12.03
2022-12-23T23:01:49.654Z,12.07
2022-12-23T23:04:18.186Z,12.10
2022-12-23T23:06:47.845Z,12.10
2022-12-23T23:09:18.951Z,12.10
2022-12-23T23:11:47.594Z,12.11
2022-12-23T23:14:16.308Z,12.17
2022-12-23T23:16:44.803Z,12.18
2022-12-23T23:19:15.077Z,12.16
2022-12-23T23:21:43.496Z,12.15
2022-12-23T23:24:13.228Z,12.09
2022-12-23T23:26:41.684Z,12.07
2022-12-23T23:29:09.944Z,12.04
2022-12-23T23:31:43.308Z,12.02
2022-12-23T23:34:12.482Z,11.99
2022-12-23T23:36:41.420Z,11.98
2022-12-23T23:39:11.958Z,12.03
2022-12-23T23:41:42.209Z,12.04
2022-12-23T23:44:11.499Z,12.03
2022-12-23T23:46:40.206Z,12.00
2022-12-23T23:49:08.641Z,12.02
2022-12-23T23:51:36.980Z,12.06
2022-12-23T23:54:05.456Z,12.10
2022-12-23T23:56:38.579Z,12.10
2022-12-23T23:59:09.807Z,12.13
